Программирование, программы

Название Размер Сиды, личи Добавлен
Видеоуроки - Java, Программирование (2009) PC 439.91 МБ 12 30 18.11.2017 Скачать
Программирование боевого софта под Linux (И. Скляров) [2007, Программирование, PDF, Отсканированные страницы] 79.36 МБ 62 84 30.08.2017 Скачать
Как стать программистом / А. Кашеваров (2009) PC 694.88 МБ 35 17 12.04.2016 Скачать
Учебный материал. CD Довбуш Г.Ф. 315.13 МБ 6 81 09.02.2016 Скачать
cd-dovbush 315.13 МБ 5 57 09.02.2016 Скачать
Borland Delphi 7 136.77 МБ 52 79 09.02.2016 Скачать
Borland C++ Builder 6.0 [2006, Программирование] 278.20 МБ 23 25 09.02.2016 Скачать
Delphi 2009 & C++ Builder 2009 Architect [2008, Программирование] 884.79 МБ 79 87 09.02.2016 Скачать
Для профессионалов - Kruglinski D., Wingo S., Shepherd G. / Круглински Д., Уингоу С., Шеферд Дж. - Programming Microsoft Visual C++ 6.0 / Программирование на Microsoft Visual C++ 6.0. CD к книге [2003, ISO, RUS] 152.60 МБ 31 71 09.02.2016 Скачать
Great Permutator v1.13 [x86, amd64] [ENG] [Native] 19.16 МБ 63 6 09.02.2016 Скачать
Visual Assist X 10.6 (build 1833) 10.34 МБ 85 8 08.02.2016 Скачать
JetBrains PhpStorm 1.0.2 build 95.503 for Windows | Linux | MacOSX 178.25 МБ 14 17 08.02.2016 Скачать
VamShop 1.60 Full (от 24.10.2010) 5.02 МБ 39 5 08.02.2016 Скачать
Шаблоны web-сайтов от Template Monster 26000-серия 2.80 ГБ 68 77 08.02.2016 Скачать
CodeGear RAD Studio 2007 Enterprise 2.91 ГБ 61 21 08.02.2016 Скачать
Zend Studio 8.0 Beta Linux 334.64 МБ 25 88 08.02.2016 Скачать
Zend Server Community Edition 114.03 МБ 49 20 08.02.2016 Скачать
BitRock InstallBuilder Enterprise Portable 106.15 МБ 17 65 08.02.2016 Скачать
CSE HTML Validator Professional 10.00 19.37 МБ 3 53 08.02.2016 Скачать
NetBeans IDE 6.9 320.45 МБ 67 56 08.02.2016 Скачать
Advanced Installer 7.7 русская версия 32.16 МБ 7 79 08.02.2016 Скачать
Visual Studio 2010 Express 1.71 ГБ 29 8 08.02.2016 Скачать
WDK для Windows 7 (7600) 610.21 МБ 3 63 08.02.2016 Скачать
DreamWeaver CS4 rus + 469.54 МБ 57 59 08.02.2016 Скачать
Activeden: White XML News Reader 3.91 МБ 20 19 08.02.2016 Скачать
Market Samurai 0.85.1 Поисковое продвижение сайтов 2.94 МБ 35 2 08.02.2016 Скачать
JooMagic Joomla Template – Grunge Theme 8.21 МБ 32 13 08.02.2016 Скачать
YooTheme Crystal v1.5.11 Update – Joomla Template 9.46 МБ 54 50 08.02.2016 Скачать
YooTheme Explorer v1.5.2 Update – Joomla Template 10.76 МБ 59 77 08.02.2016 Скачать
FrightNight - JoomlaXTC August 09 Template 73.86 МБ 24 5 08.02.2016 Скачать
YooTheme Planet v1.5.1 Update – Joomla Template 9.64 МБ 73 25 08.02.2016 Скачать
iNews Theme – Joomla Template by JooMagic 7.44 МБ 43 19 08.02.2016 Скачать
Simpla - Beautiful Joomla Admin Template 877.42 КБ 79 16 08.02.2016 Скачать
Reaction - January 2010 PHPBB3 Style 18.54 МБ 30 39 08.02.2016 Скачать
Professional Website Templates 110 best of 2009 891.71 МБ 16 55 08.02.2016 Скачать
MicroOLAP Database Designer for MySQL 1.9.10 build 555 [СУБД, MySQL] 17.66 МБ 63 40 08.02.2016 Скачать
Aditor Pro v3.10 760.32 КБ 73 47 08.02.2016 Скачать
H&M StudioLine Web 3.60.28.0 & H&M StudioLine Web 3.60.28.0 Portable 225.76 МБ 23 9 08.02.2016 Скачать
Denwer(portable) & Dreamweaver(portable) 358.24 МБ 71 60 08.02.2016 Скачать
ClickTeam Install Creator Pro v2.0 build 36 + RUS 3.33 МБ 19 52 08.02.2016 Скачать
VB.Net to C#Converter 14.60 МБ 50 40 08.02.2016 Скачать
Artisteer v2.3.0.21098 Final 61.00 МБ 57 26 08.02.2016 Скачать
ICC v7.22C Pro for Atmel AVR 10.48 МБ 42 6 08.02.2016 Скачать
Конструктор Сайтов E-PUBLISH 14.96 МБ 29 31 08.02.2016 Скачать
Keil uVision for C51 v9.00 30.37 МБ 50 75 08.02.2016 Скачать
DevArt InterBase Data Access Components (IBDAC) 47.25 МБ 56 70 08.02.2016 Скачать
IE Tester 25.87 МБ 34 62 08.02.2016 Скачать
PHP Expert Editor4.1 rus/eng с подсветкой 3.61 МБ 26 86 08.02.2016 Скачать
Конвертер PDF to Word (Doc) 3.82 МБ 53 80 08.02.2016 Скачать
ShopperPress – магазин на WordPress 13.22 МБ 17 65 08.02.2016 Скачать
Автоматическая продажа цифровых товаров с вашего сайта через PayPal. 2.25 МБ 66 84 08.02.2016 Скачать
Основы C++. Компьютерная школа Михаила Майорова (Видеоуроки) 2.36 ГБ 58 46 08.02.2016 Скачать
shopcms 3.1.1 + кряк 2.52 МБ 73 19 08.02.2016 Скачать
Micro Focus DevPartner 9.1 569.44 МБ 29 63 08.02.2016 Скачать
Шаблоны TM 23000-26000 (выборка) 8.12 ГБ 20 86 08.02.2016 Скачать
MS Visual Basic 6.0 Russian Professional Edition 205.48 МБ 34 30 08.02.2016 Скачать